Arthur, Indiana
Current Conditions -  °F | °C
As of 7:15 PM on Monday 20 Oct 2014 (Local Time) from KHNB Reporting Station
Few Clouds Few Clouds  
Wind Chill: 61°   Ceiling: Unl
Heat Index: 61°   Visibility: 10mi
Dew Point: 50°   Wind: 6mph
Humidity: 68%   Direction: 330°NNW
Pressure: 29.93"   Gusts: NA
Location:  38.3488°N, 87.2217°W
Report Text: KHNB 210015Z AUTO 33005KT 10SM FEW065 16/10 A2993 RMK AO1
Loading
Personal Weather Stations






























Interactive Weather Map
Tropical Storm Tracking
New forecast layout! Learn more

10-Day Weather Forecast

Advertisements
Track Severe Weather on mobile